createdAt,value
2023-04-12T00:00:11.443Z,9.10
2023-04-12T00:02:42.253Z,9.00
2023-04-12T00:05:11.726Z,9.10
2023-04-12T00:07:42.816Z,9.10
2023-04-12T00:10:11.531Z,9.10
2023-04-12T00:12:40.891Z,9.10
2023-04-12T00:15:11.746Z,9.10
2023-04-12T00:17:39.965Z,9.20
2023-04-12T00:20:12.383Z,9.20
2023-04-12T00:22:41.552Z,9.30
2023-04-12T00:25:10.194Z,9.30
2023-04-12T00:27:38.896Z,9.30
2023-04-12T00:30:08.618Z,9.20
2023-04-12T00:32:38.183Z,9.20
2023-04-12T00:35:07.094Z,9.30
2023-04-12T00:37:36.338Z,9.30
2023-04-12T00:40:07.035Z,9.30
2023-04-12T00:42:35.295Z,9.30
2023-04-12T00:45:03.682Z,9.30
2023-04-12T00:47:32.415Z,9.30
2023-04-12T00:50:03.202Z,9.30
2023-04-12T00:52:34.287Z,9.30
2023-04-12T00:55:04.218Z,9.20
2023-04-12T00:57:36.682Z,9.30
2023-04-12T01:00:06.127Z,9.10
2023-04-12T01:02:35.112Z,9.10
2023-04-12T01:05:04.884Z,9.00
2023-04-12T01:07:45.135Z,9.10
2023-04-12T01:10:35.344Z,9.10
2023-04-12T01:13:17.193Z,9.20
2023-04-12T01:15:53.874Z,9.10
2023-04-12T01:18:26.140Z,9.10
2023-04-12T01:21:02.714Z,9.10
2023-04-12T01:23:49.210Z,9.10
2023-04-12T01:26:40.634Z,9.10
2023-04-12T01:29:12.654Z,9.10
2023-04-12T01:31:42.763Z,9.00
2023-04-12T01:34:13.357Z,9.10
2023-04-12T01:36:43.760Z,9.00
2023-04-12T01:39:12.314Z,9.00
2023-04-12T01:41:45.304Z,9.00
2023-04-12T01:44:16.434Z,8.90
2023-04-12T01:46:46.852Z,8.90
2023-04-12T01:49:15.577Z,8.90
2023-04-12T01:51:52.507Z,9.00
2023-04-12T01:54:24.091Z,8.90
2023-04-12T01:56:59.094Z,9.00
2023-04-12T01:59:33.638Z,9.00
2023-04-12T02:02:03.511Z,8.90
2023-04-12T02:04:32.749Z,9.00
2023-04-12T02:07:01.231Z,9.00
2023-04-12T02:09:29.322Z,9.00
2023-04-12T02:11:57.918Z,9.00
2023-04-12T02:14:27.236Z,8.90
2023-04-12T02:16:58.355Z,8.90
2023-04-12T02:19:27.118Z,8.80
2023-04-12T02:21:55.312Z,8.80
2023-04-12T02:24:23.613Z,8.80
2023-04-12T02:26:51.765Z,8.80
2023-04-12T02:29:19.846Z,8.80
2023-04-12T02:31:48.393Z,8.70
2023-04-12T02:34:18.261Z,8.70
2023-04-12T02:36:48.639Z,8.70
2023-04-12T02:39:18.803Z,8.80
2023-04-12T02:41:47.202Z,8.80
2023-04-12T02:44:15.355Z,8.80
2023-04-12T02:46:43.485Z,8.70
2023-04-12T02:49:11.663Z,8.60
2023-04-12T02:51:41.794Z,8.60
2023-04-12T02:54:09.924Z,8.50
2023-04-12T02:56:38.084Z,8.40
2023-04-12T02:59:06.994Z,8.60
2023-04-12T03:01:35.193Z,8.50
2023-04-12T03:04:03.470Z,8.40
2023-04-12T03:06:32.124Z,8.40
2023-04-12T03:09:01.633Z,8.50
2023-04-12T03:11:29.812Z,8.60
2023-04-12T03:13:58.117Z,8.50
2023-04-12T03:16:30.180Z,8.60
2023-04-12T03:18:58.744Z,8.60
2023-04-12T03:21:28.414Z,8.60
2023-04-12T03:23:56.698Z,8.40
2023-04-12T03:26:27.705Z,8.50
2023-04-12T03:29:00.050Z,8.40
2023-04-12T03:31:28.246Z,8.40
2023-04-12T03:33:56.791Z,8.40
2023-04-12T03:36:25.206Z,8.50
2023-04-12T03:38:53.304Z,8.50
2023-04-12T03:41:24.018Z,8.50
2023-04-12T03:43:53.492Z,8.60
2023-04-12T03:46:22.864Z,8.40
2023-04-12T03:48:52.053Z,8.50
2023-04-12T03:51:22.331Z,8.50
2023-04-12T03:53:50.547Z,8.40
2023-04-12T03:56:20.129Z,8.40
2023-04-12T03:58:48.454Z,8.40
2023-04-12T04:01:18.172Z,8.60
2023-04-12T04:03:46.875Z,8.60
2023-04-12T04:06:15.156Z,8.70
2023-04-12T04:08:44.775Z,8.70
2023-04-12T04:11:13.744Z,8.70
2023-04-12T04:13:41.849Z,8.70
2023-04-12T04:16:11.081Z,8.60
2023-04-12T04:18:40.653Z,8.50
2023-04-12T04:21:09.351Z,8.60
2023-04-12T04:23:39.602Z,8.60
2023-04-12T04:26:10.201Z,8.70
2023-04-12T04:28:39.059Z,8.80
2023-04-12T04:31:07.448Z,8.80
2023-04-12T04:33:36.084Z,8.80
2023-04-12T04:36:07.279Z,8.80
2023-04-12T04:38:35.416Z,8.80
2023-04-12T04:41:04.596Z,9.10
2023-04-12T04:43:34.185Z,9.00
2023-04-12T04:46:02.489Z,9.00
2023-04-12T04:48:31.083Z,9.00
2023-04-12T04:51:01.236Z,9.00
2023-04-12T04:53:30.871Z,8.90
2023-04-12T04:56:01.120Z,9.00
2023-04-12T04:58:29.350Z,9.00
2023-04-12T05:00:59.785Z,9.00
2023-04-12T05:03:30.621Z,9.10
2023-04-12T05:05:59.223Z,9.10
2023-04-12T05:08:28.717Z,9.00
2023-04-12T05:10:58.745Z,9.00
2023-04-12T05:13:26.861Z,8.90
2023-04-12T05:15:55.034Z,8.90
2023-04-12T05:18:23.139Z,9.00
2023-04-12T05:20:51.302Z,9.10
2023-04-12T05:23:19.400Z,9.10
2023-04-12T05:25:48.454Z,9.10
2023-04-12T05:28:18.303Z,9.10
2023-04-12T05:30:46.890Z,9.10
2023-04-12T05:33:15.864Z,9.10
2023-04-12T05:35:44.065Z,9.10
2023-04-12T05:38:12.350Z,9.00
2023-04-12T05:40:42.105Z,9.10
2023-04-12T05:43:12.832Z,8.90
2023-04-12T05:45:42.802Z,8.90
2023-04-12T05:48:11.104Z,8.80
2023-04-12T05:50:39.430Z,8.90
2023-04-12T05:53:08.195Z,9.00
2023-04-12T05:55:38.056Z,9.10
2023-04-12T05:58:06.629Z,9.20
2023-04-12T06:00:34.812Z,9.20
2023-04-12T06:03:04.828Z,9.20
2023-04-12T06:05:34.896Z,9.20
2023-04-12T06:08:05.368Z,9.20
2023-04-12T06:10:33.754Z,9.30
2023-04-12T06:13:01.929Z,9.20
2023-04-12T06:15:31.979Z,9.30
2023-04-12T06:18:00.643Z,9.40
2023-04-12T06:20:30.282Z,9.40
2023-04-12T06:22:58.402Z,9.40
2023-04-12T06:25:26.647Z,9.50
2023-04-12T06:27:54.776Z,9.60
2023-04-12T06:30:22.979Z,9.80
2023-04-12T06:32:51.296Z,9.80
2023-04-12T06:35:20.361Z,9.80
2023-04-12T06:37:49.965Z,9.90
2023-04-12T06:40:18.266Z,9.90
2023-04-12T06:42:46.437Z,9.90
2023-04-12T06:45:14.562Z,9.90
2023-04-12T06:47:42.668Z,9.90
2023-04-12T06:50:11.670Z,9.90
2023-04-12T06:52:39.800Z,10.00
2023-04-12T06:55:10.485Z,10.10
2023-04-12T06:57:38.780Z,10.20
2023-04-12T07:00:08.377Z,10.20
2023-04-12T07:02:36.637Z,10.10
2023-04-12T07:05:04.992Z,10.30
2023-04-12T07:07:33.276Z,10.40
2023-04-12T07:10:03.370Z,10.50
2023-04-12T07:12:32.916Z,10.60
2023-04-12T07:15:01.081Z,10.80
2023-04-12T07:17:29.239Z,10.90
2023-04-12T07:19:57.415Z,11.00
2023-04-12T07:22:25.892Z,11.20
2023-04-12T07:24:54.024Z,11.30
2023-04-12T07:27:22.193Z,11.30
2023-04-12T07:29:52.905Z,11.30
2023-04-12T07:32:21.288Z,11.40
2023-04-12T07:34:49.598Z,11.60
2023-04-12T07:37:18.001Z,11.70
2023-04-12T07:39:46.126Z,12.40
2023-04-12T07:42:14.245Z,12.80
2023-04-12T07:44:42.370Z,13.00
2023-04-12T07:47:11.854Z,13.10
2023-04-12T07:49:40.013Z,13.30
2023-04-12T07:52:08.508Z,13.40
2023-04-12T07:54:36.616Z,13.60
2023-04-12T07:57:05.513Z,13.60
2023-04-12T07:59:34.215Z,13.70
2023-04-12T08:02:03.509Z,13.80
2023-04-12T08:04:33.297Z,13.90
2023-04-12T08:07:01.520Z,14.10
2023-04-12T08:09:30.250Z,14.20
2023-04-12T08:11:58.493Z,14.30
2023-04-12T08:14:26.737Z,14.40
2023-04-12T08:16:54.875Z,14.30
2023-04-12T08:19:23.114Z,14.10
2023-04-12T08:21:52.662Z,13.90
2023-04-12T08:24:21.005Z,13.80
2023-04-12T08:26:49.109Z,13.70
2023-04-12T08:29:17.250Z,13.50
2023-04-12T08:31:45.835Z,13.50
2023-04-12T08:34:14.120Z,13.70
2023-04-12T08:36:42.293Z,13.80
2023-04-12T08:39:11.782Z,13.80
2023-04-12T08:41:40.905Z,13.80
2023-04-12T08:44:09.664Z,13.80
2023-04-12T08:46:38.041Z,13.50
2023-04-12T08:49:06.413Z,13.40
2023-04-12T08:51:36.297Z,13.30
2023-04-12T08:54:06.257Z,13.20
2023-04-12T08:56:35.965Z,12.90
2023-04-12T08:59:04.400Z,12.70
2023-04-12T09:01:32.563Z,12.70
2023-04-12T09:04:00.907Z,12.60
2023-04-12T09:06:29.415Z,12.50
2023-04-12T09:08:59.440Z,12.40
2023-04-12T09:11:28.917Z,12.50
2023-04-12T09:13:59.542Z,12.30
2023-04-12T09:16:38.406Z,12.50
2023-04-12T09:19:07.025Z,12.30
2023-04-12T09:21:36.002Z,12.50
2023-04-12T09:24:06.239Z,12.10
2023-04-12T09:26:34.408Z,12.20
2023-04-12T09:29:04.010Z,12.10
2023-04-12T09:31:32.931Z,12.10
2023-04-12T09:34:09.029Z,12.10
2023-04-12T09:36:40.882Z,12.10
2023-04-12T09:39:09.557Z,12.00
2023-04-12T09:41:37.741Z,11.80
2023-04-12T09:44:07.264Z,11.80
2023-04-12T09:46:36.698Z,11.80
2023-04-12T09:49:05.709Z,11.70
2023-04-12T09:51:36.655Z,11.60
2023-04-12T09:54:06.980Z,11.80
2023-04-12T09:56:37.901Z,11.80
2023-04-12T09:59:09.271Z,11.80
2023-04-12T10:01:40.475Z,11.80
2023-04-12T10:04:09.979Z,12.00
2023-04-12T10:06:38.820Z,12.10
2023-04-12T10:09:08.723Z,11.80
2023-04-12T10:11:41.712Z,11.90
2023-04-12T10:14:11.943Z,12.00
2023-04-12T10:16:42.352Z,12.20
2023-04-12T10:19:11.492Z,12.30
2023-04-12T10:21:39.827Z,12.50
2023-04-12T10:24:08.137Z,12.40
2023-04-12T10:26:36.752Z,12.50
2023-04-12T10:29:25.338Z,12.70
2023-04-12T10:31:54.251Z,12.70
2023-04-12T10:34:28.431Z,12.90
2023-04-12T10:36:57.828Z,13.10
2023-04-12T10:39:40.253Z,13.10
2023-04-12T10:42:23.113Z,13.20
2023-04-12T10:44:54.779Z,13.40
2023-04-12T10:47:59.168Z,13.60
2023-04-12T10:50:30.108Z,13.30
2023-04-12T10:53:26.256Z,13.50
2023-04-12T10:55:54.580Z,13.40
2023-04-12T10:58:58.054Z,13.40
2023-04-12T11:01:28.972Z,13.30
2023-04-12T11:04:08.170Z,13.60
2023-04-12T11:06:59.523Z,13.90
2023-04-12T11:09:29.520Z,13.60
2023-04-12T11:11:59.589Z,13.80
2023-04-12T11:14:31.308Z,14.00
2023-04-12T11:17:26.142Z,14.10
2023-04-12T11:20:00.537Z,14.30
2023-04-12T11:22:30.688Z,14.50
2023-04-12T11:25:00.610Z,14.40
2023-04-12T11:27:31.667Z,14.50
2023-04-12T11:30:01.585Z,14.50
2023-04-12T11:32:31.860Z,14.30
2023-04-12T11:35:00.206Z,14.50
2023-04-12T11:37:28.472Z,14.40
2023-04-12T11:39:59.181Z,14.50
2023-04-12T11:42:29.218Z,14.50
2023-04-12T11:45:01.929Z,14.80
2023-04-12T11:47:34.650Z,14.90
2023-04-12T11:50:02.896Z,14.90
2023-04-12T11:52:32.105Z,15.40
2023-04-12T11:55:04.977Z,15.70
2023-04-12T11:57:33.529Z,15.70
2023-04-12T12:00:06.228Z,15.50
2023-04-12T12:02:43.546Z,15.50
2023-04-12T12:05:21.877Z,15.80
2023-04-12T12:07:50.357Z,15.80
2023-04-12T12:10:36.667Z,15.70
2023-04-12T12:13:12.162Z,15.50
2023-04-12T12:15:40.564Z,15.40
2023-04-12T12:18:11.108Z,15.20
2023-04-12T12:20:43.851Z,15.10
2023-04-12T12:23:12.056Z,15.20
2023-04-12T12:25:46.478Z,15.10
2023-04-12T12:28:14.706Z,15.20
2023-04-12T12:30:42.828Z,15.30
2023-04-12T12:33:14.126Z,15.30
2023-04-12T12:35:42.238Z,15.50
2023-04-12T12:38:11.753Z,15.30
2023-04-12T12:40:40.595Z,15.50
2023-04-12T12:43:08.697Z,15.80
2023-04-12T12:45:38.885Z,16.00
2023-04-12T12:48:07.285Z,16.00
2023-04-12T12:50:37.364Z,15.90
2023-04-12T12:53:06.755Z,15.80
2023-04-12T12:55:35.019Z,15.80
2023-04-12T12:58:08.125Z,16.00
2023-04-12T13:00:37.601Z,16.30
2023-04-12T13:03:05.980Z,16.30
2023-04-12T13:05:35.947Z,16.20
2023-04-12T13:08:04.133Z,16.20
2023-04-12T13:10:32.298Z,16.40
2023-04-12T13:13:01.739Z,16.20
2023-04-12T13:15:29.942Z,16.30
2023-04-12T13:17:58.079Z,16.30
2023-04-12T13:20:27.820Z,16.10
2023-04-12T13:22:57.300Z,15.80
2023-04-12T13:25:25.613Z,15.50
2023-04-12T13:27:54.122Z,15.60
2023-04-12T13:30:22.534Z,15.80
2023-04-12T13:32:50.814Z,15.80
2023-04-12T13:35:19.026Z,15.70
2023-04-12T13:37:47.137Z,15.80
2023-04-12T13:40:16.636Z,15.60
2023-04-12T13:42:44.781Z,15.60
2023-04-12T13:45:13.225Z,15.50
2023-04-12T13:47:41.422Z,15.30
2023-04-12T13:50:10.536Z,15.30
2023-04-12T13:52:38.718Z,15.20
2023-04-12T13:55:08.561Z,15.10
2023-04-12T13:57:38.199Z,15.10
2023-04-12T14:00:07.500Z,15.10
2023-04-12T14:02:35.756Z,15.20
2023-04-12T14:05:04.340Z,15.10
2023-04-12T14:07:32.596Z,15.20
2023-04-12T14:10:00.824Z,15.10
2023-04-12T14:12:28.972Z,15.30
2023-04-12T14:14:58.447Z,15.10
2023-04-12T14:17:32.480Z,15.00
2023-04-12T14:20:01.150Z,14.80
2023-04-12T14:22:29.276Z,14.90
2023-04-12T14:24:57.430Z,15.10
2023-04-12T14:27:25.562Z,15.30
2023-04-12T14:29:53.739Z,15.30
2023-04-12T14:32:23.386Z,15.30
2023-04-12T14:34:51.773Z,15.10
2023-04-12T14:37:19.934Z,15.00
2023-04-12T14:39:48.050Z,14.80
2023-04-12T14:42:16.188Z,14.80
2023-04-12T14:44:44.292Z,14.80
2023-04-12T14:47:12.518Z,14.70
2023-04-12T14:49:42.074Z,14.70
2023-04-12T14:52:10.234Z,14.70
2023-04-12T14:54:38.453Z,14.70
2023-04-12T14:57:06.588Z,14.40
2023-04-12T14:59:35.139Z,14.30
2023-04-12T15:02:03.485Z,13.80
2023-04-12T15:04:31.770Z,13.50
2023-04-12T15:07:01.577Z,13.30
2023-04-12T15:09:29.737Z,13.10
2023-04-12T15:12:01.499Z,12.90
2023-04-12T15:14:29.763Z,12.80
2023-04-12T15:16:57.946Z,12.80
2023-04-12T15:19:26.237Z,12.80
2023-04-12T15:21:55.410Z,12.70
2023-04-12T15:24:25.958Z,12.30
2023-04-12T15:26:54.217Z,11.80
2023-04-12T15:29:24.403Z,11.50
2023-04-12T15:31:52.846Z,11.20
2023-04-12T15:34:23.652Z,10.90
2023-04-12T15:36:52.098Z,10.90
2023-04-12T15:39:20.660Z,10.90
2023-04-12T15:41:50.197Z,11.00
2023-04-12T15:44:18.338Z,11.20
2023-04-12T15:46:59.322Z,11.10
2023-04-12T15:49:36.099Z,11.10
2023-04-12T15:52:04.660Z,11.20
2023-04-12T15:54:32.775Z,11.30
2023-04-12T15:57:09.456Z,11.20
2023-04-12T15:59:38.066Z,11.20
2023-04-12T16:02:09.732Z,11.10
2023-04-12T16:04:38.386Z,11.20
2023-04-12T16:07:06.647Z,11.20
2023-04-12T16:09:34.970Z,11.10
2023-04-12T16:12:04.534Z,11.00
2023-04-12T16:14:33.384Z,10.80
2023-04-12T16:17:01.967Z,10.90
2023-04-12T16:19:30.142Z,10.90
2023-04-12T16:21:58.242Z,10.80
2023-04-12T16:24:26.384Z,10.80
2023-04-12T16:26:54.517Z,10.60
2023-04-12T16:29:24.102Z,10.40
2023-04-12T16:31:52.764Z,10.30
2023-04-12T16:34:22.307Z,10.50
2023-04-12T16:36:51.294Z,10.50
2023-04-12T16:39:19.419Z,10.30
2023-04-12T16:41:47.979Z,10.40
2023-04-12T16:44:18.882Z,10.40
2023-04-12T16:46:49.178Z,10.50
2023-04-12T16:49:19.685Z,10.50
2023-04-12T16:51:48.061Z,10.50
2023-04-12T16:54:16.377Z,10.50
2023-04-12T16:56:44.586Z,10.50
2023-04-12T16:59:12.891Z,10.60
2023-04-12T17:01:41.034Z,10.50
2023-04-12T17:04:10.682Z,10.50
2023-04-12T17:06:40.283Z,10.40
2023-04-12T17:09:09.904Z,10.30
2023-04-12T17:11:38.152Z,10.30
2023-04-12T17:14:06.361Z,10.30
2023-04-12T17:16:34.563Z,10.10
2023-04-12T17:19:02.709Z,10.10
2023-04-12T17:21:40.846Z,9.90
2023-04-12T17:24:09.174Z,10.00
2023-04-12T17:26:37.346Z,9.90
2023-04-12T17:29:05.608Z,10.00
2023-04-12T17:34:03.508Z,9.90
2023-04-12T17:36:33.957Z,9.90
2023-04-12T17:39:04.628Z,9.90
2023-04-12T17:41:33.072Z,9.80
2023-04-12T17:44:01.839Z,9.80
2023-04-12T17:46:30.022Z,9.70
2023-04-12T17:49:00.066Z,9.80
2023-04-12T17:51:29.331Z,9.70
2023-04-12T17:54:00.523Z,9.70
2023-04-12T17:56:28.957Z,9.70
2023-04-12T17:58:57.534Z,9.80
2023-04-12T18:01:26.040Z,9.70
2023-04-12T18:03:54.426Z,9.60
2023-04-12T18:06:24.378Z,9.60
2023-04-12T18:08:52.748Z,9.60
2023-04-12T18:11:22.267Z,9.60
2023-04-12T18:13:50.484Z,9.50
2023-04-12T18:16:18.646Z,9.50
2023-04-12T18:18:46.845Z,9.40
2023-04-12T18:21:20.205Z,9.40
2023-04-12T18:23:48.409Z,9.40
2023-04-12T18:26:16.495Z,9.40
2023-04-12T18:28:46.024Z,9.40
2023-04-12T18:31:14.208Z,9.30
2023-04-12T18:33:42.600Z,9.10
2023-04-12T18:36:10.924Z,9.20
2023-04-12T18:38:39.057Z,9.30
2023-04-12T18:41:09.265Z,9.30
2023-04-12T18:43:38.602Z,9.30
2023-04-12T18:46:09.011Z,9.20
2023-04-12T18:48:37.178Z,9.20
2023-04-12T18:51:05.569Z,9.20
2023-04-12T18:53:34.097Z,9.00
2023-04-12T18:56:09.324Z,9.00
2023-04-12T18:58:53.868Z,9.00
2023-04-12T19:01:25.563Z,9.00
2023-04-12T19:03:54.155Z,9.00
2023-04-12T19:06:22.503Z,9.10
2023-04-12T19:08:50.832Z,9.00
2023-04-12T19:11:18.986Z,8.90
2023-04-12T19:13:47.117Z,9.10
2023-04-12T19:16:15.345Z,9.10
2023-04-12T19:18:44.930Z,9.10
2023-04-12T19:21:13.079Z,9.10
2023-04-12T19:23:41.219Z,9.20
2023-04-12T19:26:09.320Z,9.30
2023-04-12T19:28:37.463Z,9.40
2023-04-12T19:31:08.919Z,9.40
2023-04-12T19:33:39.024Z,9.40
2023-04-12T19:36:08.860Z,9.40
2023-04-12T19:38:40.973Z,9.40
2023-04-12T19:41:09.103Z,9.40
2023-04-12T19:43:37.331Z,9.30
2023-04-12T19:46:06.060Z,9.30
2023-04-12T19:48:34.270Z,9.40
2023-04-12T19:51:02.358Z,9.30
2023-04-12T19:53:33.334Z,9.40
2023-04-12T19:56:04.183Z,9.40
2023-04-12T19:58:33.501Z,9.60
2023-04-12T20:01:03.075Z,9.80
2023-04-12T20:03:32.038Z,9.80
2023-04-12T20:06:03.979Z,9.80
2023-04-12T20:08:33.660Z,9.70
2023-04-12T20:11:02.624Z,9.70
2023-04-12T20:13:31.339Z,9.50
2023-04-12T20:16:00.810Z,9.30
2023-04-12T20:18:29.538Z,8.90
2023-04-12T20:20:58.663Z,8.80
2023-04-12T20:23:27.285Z,8.70
2023-04-12T20:25:57.544Z,8.70
2023-04-12T20:28:25.819Z,8.60
2023-04-12T20:30:54.034Z,8.80
2023-04-12T20:33:22.224Z,8.80
2023-04-12T20:35:50.898Z,8.80
2023-04-12T20:38:19.376Z,8.80
2023-04-12T20:40:47.518Z,8.80
2023-04-12T20:43:17.007Z,8.90
2023-04-12T20:45:46.984Z,8.80
2023-04-12T20:48:15.221Z,8.80
2023-04-12T20:50:43.489Z,8.60
2023-04-12T20:53:15.213Z,8.70
2023-04-12T20:55:44.198Z,8.70
2023-04-12T20:58:13.256Z,8.70
2023-04-12T21:00:42.854Z,8.80
2023-04-12T21:03:12.432Z,8.60
2023-04-12T21:05:41.280Z,8.60
2023-04-12T21:08:09.458Z,8.70
2023-04-12T21:10:37.576Z,8.60
2023-04-12T21:13:06.239Z,8.50
2023-04-12T21:15:35.536Z,8.50
2023-04-12T21:18:05.268Z,8.70
2023-04-12T21:20:35.573Z,8.70
2023-04-12T21:23:07.129Z,8.60
2023-04-12T21:25:35.639Z,8.60
2023-04-12T21:28:04.416Z,8.70
2023-04-12T21:30:32.551Z,8.60
2023-04-12T21:33:02.286Z,8.50
2023-04-12T21:35:32.288Z,8.50
2023-04-12T21:38:00.886Z,8.60
2023-04-12T21:40:29.225Z,8.60
2023-04-12T21:42:57.715Z,8.50
2023-04-12T21:45:27.429Z,8.50
2023-04-12T21:47:55.955Z,8.50
2023-04-12T21:50:24.334Z,8.60
2023-04-12T21:52:55.729Z,8.60
2023-04-12T21:55:24.099Z,8.50
2023-04-12T21:57:53.016Z,8.50
2023-04-12T22:00:21.541Z,8.50
2023-04-12T22:02:49.923Z,8.50
2023-04-12T22:05:18.247Z,8.50
2023-04-12T22:07:46.465Z,8.50
2023-04-12T22:10:16.318Z,8.60
2023-04-12T22:12:50.622Z,8.50
2023-04-12T22:15:19.264Z,8.50
2023-04-12T22:17:47.732Z,8.50
2023-04-12T22:20:15.929Z,8.60
2023-04-12T22:22:44.181Z,8.60
2023-04-12T22:25:15.271Z,8.60
2023-04-12T22:27:46.419Z,8.60
2023-04-12T22:30:15.951Z,8.60
2023-04-12T22:32:44.375Z,8.60
2023-04-12T22:35:12.923Z,8.50
2023-04-12T22:37:43.248Z,8.50
2023-04-12T22:40:13.854Z,8.40
2023-04-12T22:42:47.437Z,8.40
2023-04-12T22:45:16.337Z,8.30
2023-04-12T22:47:45.109Z,8.30
2023-04-12T22:50:13.869Z,8.30
2023-04-12T22:52:42.461Z,8.30
2023-04-12T22:55:12.872Z,8.30
2023-04-12T22:57:41.140Z,8.20
2023-04-12T23:00:16.514Z,8.10
2023-04-12T23:02:46.121Z,8.20
2023-04-12T23:05:16.331Z,8.10
2023-04-12T23:07:44.664Z,8.10
2023-04-12T23:10:13.257Z,8.10
2023-04-12T23:12:41.484Z,8.10
2023-04-12T23:15:12.837Z,8.10
2023-04-12T23:17:41.210Z,8.10
2023-04-12T23:20:13.404Z,8.10
2023-04-12T23:22:57.275Z,8.00
2023-04-12T23:25:38.064Z,7.90
2023-04-12T23:28:12.961Z,7.80
2023-04-12T23:30:44.410Z,7.80
2023-04-12T23:33:13.043Z,7.80
2023-04-12T23:35:42.065Z,7.80
2023-04-12T23:38:10.713Z,7.80
2023-04-12T23:40:38.802Z,7.80
2023-04-12T23:43:08.616Z,7.70
2023-04-12T23:45:38.025Z,7.70
2023-04-12T23:48:08.104Z,7.70
2023-04-12T23:50:36.758Z,7.60
2023-04-12T23:53:05.501Z,7.60
2023-04-12T23:55:33.808Z,7.60
2023-04-12T23:58:01.945Z,7.50
